createdAt,value
2019-03-01T00:01:16.384Z,8.54
2019-03-01T00:03:44.698Z,8.57
2019-03-01T00:06:22.102Z,8.36
2019-03-01T00:09:13.338Z,8.38
2019-03-01T00:12:00.603Z,8.33
2019-03-01T00:15:22.140Z,8.57
2019-03-01T00:18:16.251Z,8.35
2019-03-01T00:21:10.920Z,8.41
2019-03-01T00:24:23.314Z,8.44
2019-03-01T00:27:22.630Z,8.29
2019-03-01T00:30:35.628Z,8.55
2019-03-01T00:33:55.440Z,8.43
2019-03-01T00:37:19.270Z,8.36
2019-03-01T00:39:59.630Z,8.37
2019-03-01T00:43:05.200Z,8.29
2019-03-01T00:45:33.336Z,8.10
2019-03-01T00:48:01.453Z,8.42
2019-03-01T00:50:29.807Z,8.25
2019-03-01T00:52:57.984Z,8.35
2019-03-01T00:55:26.153Z,8.24
2019-03-01T00:57:54.280Z,8.35
2019-03-01T01:00:27.933Z,8.44
2019-03-01T01:02:56.145Z,8.20
2019-03-01T01:05:24.286Z,8.33
2019-03-01T01:07:52.454Z,8.31
2019-03-01T01:10:20.669Z,8.22
2019-03-01T01:12:48.863Z,8.31
2019-03-01T01:15:16.983Z,8.26
2019-03-01T01:17:45.144Z,8.31
2019-03-01T01:20:13.352Z,8.15
2019-03-01T01:22:41.817Z,8.16
2019-03-01T01:25:10.116Z,8.21
2019-03-01T01:27:41.009Z,8.38
2019-03-01T01:30:10.723Z,8.36
2019-03-01T01:32:38.814Z,8.33
2019-03-01T01:35:06.988Z,8.27
2019-03-01T01:37:35.159Z,8.28
2019-03-01T01:40:03.375Z,8.28
2019-03-01T01:42:31.547Z,8.29
2019-03-01T01:44:59.745Z,8.24
2019-03-01T01:47:28.010Z,8.36
2019-03-01T01:49:56.187Z,8.20
2019-03-01T01:52:24.320Z,8.21
2019-03-01T01:54:52.522Z,8.16
2019-03-01T01:57:20.667Z,8.28
2019-03-01T01:59:48.775Z,8.23
2019-03-01T02:02:16.941Z,8.31
2019-03-01T02:04:45.156Z,7.05
2019-03-01T02:07:13.583Z,8.37
2019-03-01T02:09:41.778Z,8.35
2019-03-01T02:12:10.239Z,8.30
2019-03-01T02:14:39.105Z,8.32
2019-03-01T02:17:07.379Z,8.27
2019-03-01T02:19:35.594Z,8.19
2019-03-01T02:22:03.719Z,8.27
2019-03-01T02:24:31.892Z,8.15
2019-03-01T02:27:24.072Z,8.14
2019-03-01T02:29:52.258Z,8.12
2019-03-01T02:32:28.866Z,8.08
2019-03-01T02:34:57.064Z,8.18
2019-03-01T02:37:25.273Z,8.20
2019-03-01T02:39:53.463Z,8.16
2019-03-01T02:42:21.706Z,8.12
2019-03-01T02:44:49.890Z,8.06
2019-03-01T02:47:18.053Z,8.09
2019-03-01T02:49:46.246Z,8.16
2019-03-01T02:52:14.600Z,8.14
2019-03-01T02:54:43.073Z,8.10
2019-03-01T02:57:11.508Z,8.10
2019-03-01T02:59:39.671Z,8.09
2019-03-01T03:02:07.908Z,8.20
2019-03-01T03:04:36.255Z,8.14
2019-03-01T03:07:23.415Z,8.12
2019-03-01T03:09:51.651Z,8.06
2019-03-01T03:15:09.127Z,8.00
2019-03-01T03:17:37.245Z,7.95
2019-03-01T03:20:05.867Z,7.99
2019-03-01T03:22:34.037Z,8.10
2019-03-01T03:25:02.234Z,8.04
2019-03-01T03:27:30.410Z,7.98
2019-03-01T03:29:58.531Z,7.98
2019-03-01T03:32:26.986Z,8.08
2019-03-01T03:34:55.116Z,8.21
2019-03-01T03:37:23.211Z,8.28
2019-03-01T03:39:51.354Z,8.24
2019-03-01T03:42:19.534Z,8.25
2019-03-01T03:44:47.734Z,8.35
2019-03-01T03:47:15.879Z,8.13
2019-03-01T03:49:44.223Z,8.23
2019-03-01T03:52:13.022Z,8.12
2019-03-01T03:54:41.418Z,8.14
2019-03-01T03:57:09.574Z,8.17
2019-03-01T03:59:37.720Z,8.27
2019-03-01T04:02:06.281Z,8.13
2019-03-01T04:04:34.482Z,8.14
2019-03-01T04:07:02.622Z,8.15
2019-03-01T04:09:31.257Z,8.21
2019-03-01T04:11:59.384Z,8.12
2019-03-01T04:14:27.509Z,8.10
2019-03-01T04:16:55.780Z,8.16
2019-03-01T04:19:24.010Z,8.18
2019-03-01T04:21:52.351Z,8.14
2019-03-01T04:24:20.501Z,8.21
2019-03-01T04:26:49.001Z,8.11
2019-03-01T04:29:17.447Z,8.21
2019-03-01T04:31:46.009Z,8.15
2019-03-01T04:34:14.437Z,8.20
2019-03-01T04:36:42.601Z,8.03
2019-03-01T04:39:10.740Z,8.00
2019-03-01T04:41:38.996Z,8.10
2019-03-01T04:44:07.797Z,8.05
2019-03-01T04:46:35.925Z,8.08
2019-03-01T04:49:04.062Z,8.14
2019-03-01T04:51:55.716Z,8.15
2019-03-01T04:54:24.012Z,8.11
2019-03-01T04:56:52.234Z,8.08
2019-03-01T04:59:20.663Z,8.20
2019-03-01T05:01:48.766Z,8.11
2019-03-01T05:04:16.973Z,8.11
2019-03-01T05:06:45.127Z,8.11
2019-03-01T05:09:13.588Z,8.22
2019-03-01T05:11:41.845Z,8.14
2019-03-01T05:14:10.062Z,8.05
2019-03-01T05:16:38.261Z,8.03
2019-03-01T05:19:06.449Z,8.11
2019-03-01T05:21:34.577Z,8.05
2019-03-01T05:24:02.890Z,8.09
2019-03-01T05:26:34.996Z,8.07
2019-03-01T05:29:03.194Z,8.03
2019-03-01T05:31:31.685Z,8.14
2019-03-01T05:34:00.063Z,7.96
2019-03-01T05:36:28.294Z,7.93
2019-03-01T05:38:56.477Z,7.90
2019-03-01T05:41:24.789Z,7.94
2019-03-01T05:43:52.961Z,8.07
2019-03-01T05:46:21.560Z,7.96
2019-03-01T05:48:49.705Z,7.89
2019-03-01T05:51:17.865Z,7.94
2019-03-01T05:53:46.170Z,7.95
2019-03-01T05:56:14.375Z,7.92
2019-03-01T05:59:07.277Z,8.14
2019-03-01T06:01:43.960Z,8.10
2019-03-01T06:04:41.280Z,8.05
2019-03-01T06:07:59.279Z,8.04
2019-03-01T06:10:51.624Z,7.99
2019-03-01T06:14:06.150Z,7.93
2019-03-01T06:17:14.484Z,7.83
2019-03-01T06:20:11.811Z,7.76
2019-03-01T06:23:12.031Z,7.80
2019-03-01T06:26:18.300Z,7.84
2019-03-01T06:29:45.527Z,7.92
2019-03-01T06:32:54.317Z,7.98
2019-03-01T06:35:49.616Z,7.85
2019-03-01T06:39:18.125Z,7.91
2019-03-01T06:42:15.697Z,7.81
2019-03-01T06:45:16.166Z,7.83
2019-03-01T06:47:47.551Z,7.83
2019-03-01T06:50:20.491Z,7.86
2019-03-01T06:52:48.845Z,7.96
2019-03-01T06:55:35.787Z,7.93
2019-03-01T06:58:03.948Z,7.91
2019-03-01T07:03:45.462Z,7.91
2019-03-01T07:06:13.663Z,7.95
2019-03-01T07:08:41.983Z,7.94
2019-03-01T07:11:10.160Z,7.98
2019-03-01T07:13:38.526Z,7.98
2019-03-01T07:16:06.962Z,8.02
2019-03-01T07:18:35.270Z,8.15
2019-03-01T07:21:03.556Z,8.10
2019-03-01T07:23:36.780Z,8.12
2019-03-01T07:26:01.690Z,8.16
2019-03-01T07:28:30.013Z,8.15
2019-03-01T07:30:58.282Z,8.24
2019-03-01T07:33:26.953Z,8.24
2019-03-01T07:35:55.099Z,8.29
2019-03-01T07:38:23.243Z,8.32
2019-03-01T07:40:51.483Z,8.46
2019-03-01T07:43:19.595Z,8.42
2019-03-01T07:45:47.837Z,8.50
2019-03-01T07:48:16.452Z,8.53
2019-03-01T07:50:44.805Z,8.51
2019-03-01T07:53:13.265Z,8.45
2019-03-01T07:55:41.481Z,8.41
2019-03-01T07:58:09.859Z,8.51
2019-03-01T08:00:38.207Z,8.46
2019-03-01T08:03:06.355Z,8.43
2019-03-01T08:05:35.608Z,8.41
2019-03-01T08:08:04.868Z,8.35
2019-03-01T08:10:33.026Z,8.44
2019-03-01T08:13:21.701Z,8.30
2019-03-01T08:15:50.032Z,8.30
2019-03-01T08:18:18.246Z,8.25
2019-03-01T08:20:46.492Z,8.22
2019-03-01T08:23:14.802Z,8.34
2019-03-01T08:25:42.944Z,8.40
2019-03-01T08:28:11.264Z,8.22
2019-03-01T08:30:42.454Z,8.33
2019-03-01T08:33:09.532Z,8.23
2019-03-01T08:35:37.871Z,8.32
2019-03-01T08:38:06.051Z,8.16
2019-03-01T08:40:34.304Z,8.28
2019-03-01T08:43:02.455Z,8.33
2019-03-01T08:45:32.953Z,8.38
2019-03-01T08:48:00.608Z,8.40
2019-03-01T08:50:29.031Z,8.60
2019-03-01T08:52:57.377Z,8.59
2019-03-01T08:55:25.741Z,8.80
2019-03-01T08:57:54.202Z,8.65
2019-03-01T09:00:26.984Z,8.74
2019-03-01T09:02:57.135Z,8.89
2019-03-01T09:05:25.497Z,8.89
2019-03-01T09:07:53.751Z,8.85
2019-03-01T09:10:22.128Z,8.92
2019-03-01T09:12:50.998Z,9.03
2019-03-01T09:15:19.515Z,8.97
2019-03-01T09:17:47.798Z,9.08
2019-03-01T09:20:16.390Z,9.05
2019-03-01T09:22:44.840Z,8.98
2019-03-01T09:25:13.335Z,9.06
2019-03-01T09:27:41.784Z,9.06
2019-03-01T09:30:16.400Z,9.07
2019-03-01T09:32:44.710Z,8.97
2019-03-01T09:35:32.207Z,9.05
2019-03-01T09:38:01.045Z,9.44
2019-03-01T09:40:29.698Z,9.44
2019-03-01T09:42:57.993Z,9.47
2019-03-01T09:45:35.570Z,9.51
2019-03-01T09:47:56.150Z,9.47
2019-03-01T09:50:24.439Z,9.62
2019-03-01T09:52:55.476Z,9.43
2019-03-01T09:55:22.634Z,9.40
2019-03-01T09:57:50.855Z,9.40
2019-03-01T10:00:21.721Z,9.45
2019-03-01T10:02:49.882Z,9.06
2019-03-01T10:05:18.693Z,8.81
2019-03-01T10:07:47.001Z,8.83
2019-03-01T10:10:18.923Z,9.03
2019-03-01T10:12:47.369Z,8.94
2019-03-01T10:15:15.625Z,8.95
2019-03-01T10:17:44.105Z,9.01
2019-03-01T10:20:13.615Z,9.14
2019-03-01T10:22:41.892Z,9.34
2019-03-01T10:25:11.954Z,9.28
2019-03-01T10:27:40.476Z,9.36
2019-03-01T10:30:15.090Z,9.55
2019-03-01T10:32:43.379Z,9.37
2019-03-01T10:35:12.496Z,9.37
2019-03-01T10:37:40.648Z,9.21
2019-03-01T10:40:10.644Z,8.95
2019-03-01T10:42:38.855Z,8.76
2019-03-01T10:45:09.068Z,8.89
2019-03-01T10:47:37.360Z,8.25
2019-03-01T10:50:06.328Z,8.34
2019-03-01T10:52:34.453Z,8.13
2019-03-01T10:55:02.592Z,8.43
2019-03-01T10:57:30.774Z,8.60
2019-03-01T10:59:59.211Z,7.92
2019-03-01T11:02:27.397Z,8.18
2019-03-01T11:04:55.752Z,8.09
2019-03-01T11:07:24.027Z,8.28
2019-03-01T11:09:52.231Z,7.98
2019-03-01T11:12:20.638Z,7.84
2019-03-01T11:14:49.151Z,7.87
2019-03-01T11:17:17.486Z,7.26
2019-03-01T11:19:45.892Z,7.57
2019-03-01T11:22:14.223Z,7.39
2019-03-01T11:24:42.368Z,7.59
2019-03-01T11:27:13.036Z,7.30
2019-03-01T11:29:40.540Z,7.09
2019-03-01T11:32:08.784Z,7.68
2019-03-01T11:34:37.034Z,7.52
2019-03-01T11:37:05.254Z,5.64
2019-03-01T11:39:33.536Z,7.77
2019-03-01T11:42:02.004Z,7.75
2019-03-01T11:44:30.248Z,7.47
2019-03-01T11:46:58.472Z,7.40
2019-03-01T11:49:26.631Z,7.51
2019-03-01T11:51:54.847Z,7.78
2019-03-01T11:54:23.465Z,8.41
2019-03-01T11:56:53.716Z,8.90
2019-03-01T11:59:22.345Z,8.44
2019-03-01T12:01:50.625Z,8.26
2019-03-01T12:04:19.087Z,8.00
2019-03-01T12:06:47.955Z,8.12
2019-03-01T12:09:16.334Z,8.32
2019-03-01T12:11:44.631Z,8.10
2019-03-01T12:14:12.767Z,7.84
2019-03-01T12:16:41.113Z,8.05
2019-03-01T12:19:09.482Z,8.24
2019-03-01T12:21:38.022Z,7.54
2019-03-01T12:24:06.302Z,7.74
2019-03-01T12:26:34.668Z,7.79
2019-03-01T12:29:02.983Z,7.47
2019-03-01T12:31:31.410Z,7.13
2019-03-01T12:33:59.805Z,7.47
2019-03-01T12:36:28.091Z,7.19
2019-03-01T12:38:56.350Z,7.21
2019-03-01T12:41:24.818Z,7.17
2019-03-01T12:43:53.213Z,6.99
2019-03-01T12:46:21.508Z,6.98
2019-03-01T12:48:49.706Z,7.39
2019-03-01T12:51:17.917Z,7.06
2019-03-01T12:53:46.158Z,6.99
2019-03-01T12:56:14.371Z,6.74
2019-03-01T12:58:42.567Z,7.23
2019-03-01T13:01:10.740Z,6.47
2019-03-01T13:03:40.663Z,7.27
2019-03-01T13:06:08.958Z,5.99
2019-03-01T13:08:37.307Z,6.48
2019-03-01T13:11:05.708Z,6.20
2019-03-01T13:13:34.656Z,6.65
2019-03-01T13:16:04.037Z,6.16
2019-03-01T13:18:32.251Z,6.23
2019-03-01T13:21:00.501Z,6.00
2019-03-01T13:23:28.948Z,6.75
2019-03-01T13:25:57.971Z,6.21
2019-03-01T13:28:26.503Z,6.21
2019-03-01T13:30:54.731Z,6.60
2019-03-01T13:33:23.123Z,5.97
2019-03-01T13:35:51.688Z,6.31
2019-03-01T13:38:20.093Z,5.67
2019-03-01T13:40:48.727Z,5.64
2019-03-01T13:43:23.791Z,6.00
2019-03-01T13:45:53.459Z,6.12
2019-03-01T13:48:22.762Z,5.69
2019-03-01T13:50:51.648Z,5.97
2019-03-01T13:53:19.989Z,5.94
2019-03-01T13:55:48.432Z,5.51
2019-03-01T13:58:16.902Z,6.07
2019-03-01T14:00:45.656Z,5.70
2019-03-01T14:03:15.487Z,5.45
2019-03-01T14:05:43.875Z,5.92
2019-03-01T14:08:12.288Z,5.60
2019-03-01T14:10:41.814Z,6.17
2019-03-01T14:13:14.431Z,5.72
2019-03-01T14:15:40.766Z,6.10
2019-03-01T14:18:09.247Z,5.29
2019-03-01T14:20:37.781Z,5.47
2019-03-01T14:23:06.325Z,5.23
2019-03-01T14:25:34.812Z,5.38
2019-03-01T14:28:05.150Z,5.79
2019-03-01T14:30:33.754Z,5.64
2019-03-01T14:33:02.093Z,5.80
2019-03-01T14:35:30.483Z,5.90
2019-03-01T14:37:58.855Z,5.24
2019-03-01T14:40:27.720Z,5.99
2019-03-01T14:42:56.293Z,5.00
2019-03-01T14:45:25.944Z,5.34
2019-03-01T14:47:55.726Z,5.11
2019-03-01T14:50:25.016Z,5.46
2019-03-01T14:52:58.470Z,5.30
2019-03-01T14:55:27.438Z,4.95
2019-03-01T14:58:03.080Z,5.41
2019-03-01T15:00:39.281Z,5.04
2019-03-01T15:03:31.120Z,4.85
2019-03-01T15:05:59.454Z,5.25
2019-03-01T15:08:27.945Z,5.52
2019-03-01T15:10:56.619Z,5.33
2019-03-01T15:13:25.097Z,5.02
2019-03-01T15:15:53.549Z,4.58
2019-03-01T15:18:21.999Z,5.11
2019-03-01T15:20:50.355Z,4.93
2019-03-01T15:23:20.780Z,4.79
2019-03-01T15:25:49.153Z,5.16
2019-03-01T15:28:17.902Z,4.75
2019-03-01T15:30:47.285Z,5.13
2019-03-01T15:33:16.171Z,4.61
2019-03-01T15:35:45.336Z,4.51
2019-03-01T15:38:13.659Z,5.57
2019-03-01T15:40:42.087Z,4.95
2019-03-01T15:43:10.567Z,5.66
2019-03-01T15:45:39.880Z,4.58
2019-03-01T15:48:09.093Z,5.22
2019-03-01T15:50:37.624Z,5.19
2019-03-01T15:53:05.987Z,4.87
2019-03-01T15:55:34.330Z,4.76
2019-03-01T15:58:02.708Z,4.65
2019-03-01T16:00:31.216Z,4.58
2019-03-01T16:03:00.502Z,5.39
2019-03-01T16:05:29.158Z,5.05
2019-03-01T16:07:58.028Z,5.23
2019-03-01T16:10:26.736Z,4.85
2019-03-01T16:12:54.935Z,5.06
2019-03-01T16:15:23.228Z,4.48
2019-03-01T16:17:51.616Z,4.84
2019-03-01T16:20:20.141Z,5.02
2019-03-01T16:22:56.076Z,4.83
2019-03-01T16:25:24.584Z,4.84
2019-03-01T16:27:54.212Z,5.20
2019-03-01T16:30:23.352Z,4.73
2019-03-01T16:32:51.609Z,4.73
2019-03-01T16:35:19.989Z,5.15
2019-03-01T16:40:25.016Z,5.44
2019-03-01T16:42:54.665Z,4.54
2019-03-01T16:45:23.619Z,4.74
2019-03-01T16:47:51.976Z,4.42
2019-03-01T16:50:20.397Z,5.06
2019-03-01T16:52:49.020Z,4.67
2019-03-01T16:55:18.001Z,4.71
2019-03-01T16:57:48.672Z,5.09
2019-03-01T17:00:18.120Z,4.63
2019-03-01T17:02:47.997Z,4.33
2019-03-01T17:05:16.649Z,4.01
2019-03-01T17:07:44.983Z,4.01
2019-03-01T17:10:15.600Z,4.60
2019-03-01T17:12:43.190Z,4.25
2019-03-01T17:15:14.897Z,3.94
2019-03-01T17:17:43.975Z,4.12
2019-03-01T17:20:12.398Z,4.38
2019-03-01T17:22:40.883Z,4.40
2019-03-01T17:25:09.368Z,4.26
2019-03-01T17:27:40.036Z,4.35
2019-03-01T17:30:11.118Z,4.54
2019-03-01T17:32:39.914Z,4.22
2019-03-01T17:35:08.936Z,4.26
2019-03-01T17:37:37.998Z,4.17
2019-03-01T17:40:06.883Z,4.08
2019-03-01T17:42:35.141Z,4.34
2019-03-01T17:45:04.499Z,4.37
2019-03-01T17:47:33.129Z,4.71
2019-03-01T17:50:01.670Z,5.00
2019-03-01T17:52:33.710Z,4.83
2019-03-01T17:55:02.768Z,4.87
2019-03-01T17:57:32.946Z,4.76
2019-03-01T18:00:02.593Z,4.54
2019-03-01T18:02:30.831Z,4.95
2019-03-01T18:04:59.079Z,4.62
2019-03-01T18:07:28.272Z,4.32
2019-03-01T18:09:56.951Z,4.45
2019-03-01T18:12:25.756Z,4.86
2019-03-01T18:14:54.343Z,5.06
2019-03-01T18:17:23.165Z,5.11
2019-03-01T18:19:51.560Z,4.86
2019-03-01T18:22:22.909Z,4.34
2019-03-01T18:24:49.895Z,4.81
2019-03-01T18:27:19.331Z,4.87
2019-03-01T18:29:47.904Z,5.03
2019-03-01T18:32:17.241Z,4.80
2019-03-01T18:34:45.804Z,4.72
2019-03-01T18:37:19.415Z,4.76
2019-03-01T18:39:45.460Z,4.25
2019-03-01T18:42:38.069Z,4.33
2019-03-01T18:45:07.070Z,4.43
2019-03-01T18:47:37.972Z,4.18
2019-03-01T18:50:09.966Z,3.28
2019-03-01T18:52:39.786Z,3.95
2019-03-01T18:55:10.108Z,4.15
2019-03-01T18:57:39.693Z,4.03
2019-03-01T19:00:32.455Z,4.14
2019-03-01T19:03:05.499Z,4.13
2019-03-01T19:05:36.678Z,4.08
2019-03-01T19:08:06.499Z,3.87
2019-03-01T19:10:35.877Z,4.26
2019-03-01T19:13:08.275Z,3.98
2019-03-01T19:15:38.399Z,4.12
2019-03-01T19:18:08.127Z,4.28
2019-03-01T19:20:38.024Z,4.29
2019-03-01T19:23:08.485Z,3.98
2019-03-01T19:25:38.281Z,4.24
2019-03-01T19:28:08.152Z,4.20
2019-03-01T19:30:37.897Z,4.34
2019-03-01T19:33:07.901Z,4.19
2019-03-01T19:35:38.637Z,4.24
2019-03-01T19:38:08.916Z,3.96
2019-03-01T19:40:39.193Z,4.06
2019-03-01T19:43:10.299Z,3.86
2019-03-01T19:45:41.770Z,4.12
2019-03-01T19:48:11.933Z,3.95
2019-03-01T19:50:43.575Z,4.11
2019-03-01T19:53:13.741Z,4.09
2019-03-01T19:55:44.033Z,3.96
2019-03-01T19:58:16.862Z,4.07
2019-03-01T20:00:46.567Z,3.98
2019-03-01T20:03:16.313Z,4.03
2019-03-01T20:05:52.647Z,4.34
2019-03-01T20:08:22.431Z,4.25
2019-03-01T20:10:52.578Z,4.49
2019-03-01T20:13:22.405Z,4.30
2019-03-01T20:15:52.872Z,4.36
2019-03-01T20:18:21.570Z,4.27
2019-03-01T20:20:51.590Z,4.19
2019-03-01T20:26:11.627Z,4.19
2019-03-01T20:28:43.648Z,4.27
2019-03-01T20:31:14.912Z,4.02
2019-03-01T20:33:45.146Z,3.88
2019-03-01T20:36:17.640Z,4.19
2019-03-01T20:38:47.178Z,4.27
2019-03-01T20:41:17.145Z,3.95
2019-03-01T20:43:47.344Z,3.98
2019-03-01T20:46:17.529Z,3.86
2019-03-01T20:48:47.557Z,3.97
2019-03-01T20:51:17.451Z,4.05
2019-03-01T20:53:49.501Z,4.04
2019-03-01T20:56:20.031Z,4.11
2019-03-01T20:58:49.981Z,3.84
2019-03-01T21:01:22.538Z,4.26
2019-03-01T21:03:52.536Z,4.02
2019-03-01T21:06:22.146Z,4.20
2019-03-01T21:08:52.516Z,4.20
2019-03-01T21:11:25.317Z,3.97
2019-03-01T21:13:55.292Z,3.81
2019-03-01T21:16:25.068Z,4.06
2019-03-01T21:18:53.853Z,4.05
2019-03-01T21:21:25.593Z,4.02
2019-03-01T21:23:54.161Z,4.00
2019-03-01T21:26:24.073Z,4.06
2019-03-01T21:28:53.512Z,3.98
2019-03-01T21:31:23.187Z,3.93
2019-03-01T21:33:52.734Z,4.21
2019-03-01T21:36:22.913Z,4.00
2019-03-01T21:38:51.254Z,3.93
2019-03-01T21:41:19.871Z,3.87
2019-03-01T21:43:48.729Z,3.81
2019-03-01T21:46:18.207Z,3.93
2019-03-01T21:48:47.481Z,3.92
2019-03-01T21:51:18.522Z,3.78
2019-03-01T21:53:47.123Z,4.22
2019-03-01T21:56:34.725Z,4.39
2019-03-01T21:59:04.290Z,4.39
2019-03-01T22:01:33.083Z,4.19
2019-03-01T22:04:02.529Z,4.16
2019-03-01T22:06:31.656Z,4.42
2019-03-01T22:09:00.972Z,4.26
2019-03-01T22:11:29.364Z,4.14
2019-03-01T22:13:59.188Z,4.38
2019-03-01T22:16:27.458Z,4.25
2019-03-01T22:18:58.735Z,4.17
2019-03-01T22:21:26.616Z,3.90
2019-03-01T22:23:55.481Z,3.98
2019-03-01T22:26:24.113Z,4.28
2019-03-01T22:28:52.889Z,4.25
2019-03-01T22:31:21.926Z,3.96
2019-03-01T22:33:52.653Z,4.01
2019-03-01T22:36:21.115Z,4.01
2019-03-01T22:38:49.381Z,4.20
2019-03-01T22:41:18.028Z,3.90
2019-03-01T22:43:46.361Z,3.94
2019-03-01T22:46:15.124Z,3.76
2019-03-01T22:48:47.142Z,3.75
2019-03-01T22:51:14.431Z,3.70
2019-03-01T22:53:44.203Z,3.76
2019-03-01T22:56:13.143Z,3.85
2019-03-01T22:58:41.368Z,3.77
2019-03-01T23:01:16.744Z,3.65
2019-03-01T23:03:51.572Z,3.70
2019-03-01T23:06:20.561Z,3.77
2019-03-01T23:08:48.763Z,3.83
2019-03-01T23:11:17.071Z,3.71
2019-03-01T23:13:45.418Z,3.95
2019-03-01T23:16:15.967Z,3.70
2019-03-01T23:18:44.156Z,3.78
2019-03-01T23:21:12.504Z,3.81
2019-03-01T23:23:40.952Z,3.66
2019-03-01T23:26:09.481Z,3.59
2019-03-01T23:28:40.765Z,3.60
2019-03-01T23:31:08.124Z,3.91
2019-03-01T23:33:36.361Z,3.88
2019-03-01T23:36:05.112Z,3.76
2019-03-01T23:38:33.411Z,3.92
2019-03-01T23:41:01.741Z,3.88
2019-03-01T23:43:30.876Z,3.68
2019-03-01T23:46:00.054Z,3.70
2019-03-01T23:48:28.573Z,3.60
2019-03-01T23:50:56.917Z,3.72
2019-03-01T23:53:25.185Z,3.89
2019-03-01T23:55:54.693Z,3.69
2019-03-01T23:58:23.632Z,3.81
